sensor_id;sensor_type;location;lat;lon;timestamp;P1;durP1;ratioP1;P2;durP2;ratioP2
11269;SDS011;5692;48.956;9.200;2022-10-16T00:00:44;204.13;;;194.35;;
11269;SDS011;5692;48.956;9.200;2022-10-16T00:03:10;187.10;;;178.15;;
11269;SDS011;5692;48.956;9.200;2022-10-16T00:05:43;180.10;;;171.50;;
11269;SDS011;5692;48.956;9.200;2022-10-16T00:08:10;202.07;;;192.38;;
11269;SDS011;5692;48.956;9.200;2022-10-16T00:10:37;191.82;;;182.63;;
11269;SDS011;5692;48.956;9.200;2022-10-16T00:13:03;183.50;;;174.70;;
11269;SDS011;5692;48.956;9.200;2022-10-16T00:15:29;188.50;;;179.50;;
11269;SDS011;5692;48.956;9.200;2022-10-16T00:17:56;193.95;;;184.68;;
11269;SDS011;5692;48.956;9.200;2022-10-16T00:20:22;189.63;;;180.55;;
11269;SDS011;5692;48.956;9.200;2022-10-16T00:22:48;184.73;;;175.90;;
11269;SDS011;5692;48.956;9.200;2022-10-16T00:25:16;186.10;;;177.20;;
11269;SDS011;5692;48.956;9.200;2022-10-16T00:27:42;194.25;;;184.95;;
11269;SDS011;5692;48.956;9.200;2022-10-16T00:30:08;177.45;;;168.95;;
11269;SDS011;5692;48.956;9.200;2022-10-16T00:32:35;180.02;;;171.43;;
11269;SDS011;5692;48.956;9.200;2022-10-16T00:35:01;198.77;;;189.27;;
11269;SDS011;5692;48.956;9.200;2022-10-16T00:37:28;191.82;;;182.65;;
11269;SDS011;5692;48.956;9.200;2022-10-16T00:39:54;200.45;;;190.85;;
11269;SDS011;5692;48.956;9.200;2022-10-16T00:42:20;192.52;;;183.32;;
11269;SDS011;5692;48.956;9.200;2022-10-16T00:44:57;194.52;;;185.23;;
11269;SDS011;5692;48.956;9.200;2022-10-16T00:49:53;199.07;;;189.57;;
11269;SDS011;5692;48.956;9.200;2022-10-16T00:52:21;184.55;;;175.73;;
11269;SDS011;5692;48.956;9.200;2022-10-16T00:54:48;200.88;;;191.27;;
11269;SDS011;5692;48.956;9.200;2022-10-16T00:57:16;191.48;;;182.27;;
11269;SDS011;5692;48.956;9.200;2022-10-16T00:59:42;196.52;;;187.13;;
11269;SDS011;5692;48.956;9.200;2022-10-16T01:02:09;190.15;;;181.05;;
11269;SDS011;5692;48.956;9.200;2022-10-16T01:04:42;211.13;;;201.02;;
11269;SDS011;5692;48.956;9.200;2022-10-16T01:12:47;187.13;;;178.18;;
11269;SDS011;5692;48.956;9.200;2022-10-16T01:15:51;185.55;;;176.65;;
11269;SDS011;5692;48.956;9.200;2022-10-16T01:20:37;195.15;;;185.80;;
11269;SDS011;5692;48.956;9.200;2022-10-16T01:28:20;181.80;;;173.10;;
11269;SDS011;5692;48.956;9.200;2022-10-16T01:30:48;189.07;;;180.00;;
11269;SDS011;5692;48.956;9.200;2022-10-16T01:33:19;184.50;;;175.65;;
11269;SDS011;5692;48.956;9.200;2022-10-16T01:35:48;192.68;;;183.48;;
11269;SDS011;5692;48.956;9.200;2022-10-16T01:40:49;159.27;;;151.68;;
11269;SDS011;5692;48.956;9.200;2022-10-16T01:43:25;165.40;;;157.48;;
11269;SDS011;5692;48.956;9.200;2022-10-16T01:45:55;167.18;;;159.18;;
11269;SDS011;5692;48.956;9.200;2022-10-16T01:48:22;163.50;;;155.70;;
11269;SDS011;5692;48.956;9.200;2022-10-16T01:50:52;176.48;;;168.02;;
11269;SDS011;5692;48.956;9.200;2022-10-16T01:53:19;182.88;;;174.10;;
11269;SDS011;5692;48.956;9.200;2022-10-16T01:55:46;186.60;;;177.65;;
11269;SDS011;5692;48.956;9.200;2022-10-16T01:58:14;194.00;;;184.70;;
11269;SDS011;5692;48.956;9.200;2022-10-16T02:00:42;191.95;;;182.75;;
11269;SDS011;5692;48.956;9.200;2022-10-16T02:03:09;210.88;;;200.77;;
11269;SDS011;5692;48.956;9.200;2022-10-16T02:05:38;186.85;;;177.90;;
11269;SDS011;5692;48.956;9.200;2022-10-16T02:08:06;200.45;;;190.85;;
11269;SDS011;5692;48.956;9.200;2022-10-16T02:10:32;192.82;;;183.60;;
11269;SDS011;5692;48.956;9.200;2022-10-16T02:13:02;181.88;;;173.18;;
11269;SDS011;5692;48.956;9.200;2022-10-16T02:15:29;201.85;;;192.20;;
11269;SDS011;5692;48.956;9.200;2022-10-16T02:17:55;193.60;;;184.30;;
11269;SDS011;5692;48.956;9.200;2022-10-16T02:20:22;194.35;;;185.05;;
11269;SDS011;5692;48.956;9.200;2022-10-16T02:22:53;190.07;;;180.98;;
11269;SDS011;5692;48.956;9.200;2022-10-16T02:25:25;190.73;;;181.63;;
11269;SDS011;5692;48.956;9.200;2022-10-16T02:27:57;185.52;;;176.63;;
11269;SDS011;5692;48.956;9.200;2022-10-16T02:32:52;180.87;;;172.20;;
11269;SDS011;5692;48.956;9.200;2022-10-16T02:35:19;180.98;;;172.32;;
11269;SDS011;5692;48.956;9.200;2022-10-16T02:37:46;180.73;;;172.05;;
11269;SDS011;5692;48.956;9.200;2022-10-16T02:40:13;171.07;;;162.88;;
11269;SDS011;5692;48.956;9.200;2022-10-16T02:42:40;173.98;;;165.63;;
11269;SDS011;5692;48.956;9.200;2022-10-16T02:45:07;182.45;;;173.75;;
11269;SDS011;5692;48.956;9.200;2022-10-16T02:47:33;173.80;;;165.48;;
11269;SDS011;5692;48.956;9.200;2022-10-16T02:49:59;179.20;;;170.60;;
11269;SDS011;5692;48.956;9.200;2022-10-16T02:52:25;182.45;;;173.70;;
11269;SDS011;5692;48.956;9.200;2022-10-16T02:54:51;191.05;;;181.90;;
11269;SDS011;5692;48.956;9.200;2022-10-16T02:57:17;189.25;;;180.18;;
11269;SDS011;5692;48.956;9.200;2022-10-16T02:59:44;186.20;;;177.30;;
11269;SDS011;5692;48.956;9.200;2022-10-16T03:02:10;179.65;;;171.05;;
11269;SDS011;5692;48.956;9.200;2022-10-16T03:04:36;188.27;;;179.27;;
11269;SDS011;5692;48.956;9.200;2022-10-16T03:07:03;170.95;;;162.75;;
11269;SDS011;5692;48.956;9.200;2022-10-16T03:09:32;186.65;;;177.73;;
11269;SDS011;5692;48.956;9.200;2022-10-16T03:11:58;181.65;;;172.95;;
11269;SDS011;5692;48.956;9.200;2022-10-16T03:14:24;181.93;;;173.23;;
11269;SDS011;5692;48.956;9.200;2022-10-16T03:16:50;183.93;;;175.13;;
11269;SDS011;5692;48.956;9.200;2022-10-16T03:19:17;194.15;;;184.85;;
11269;SDS011;5692;48.956;9.200;2022-10-16T03:21:43;204.65;;;194.85;;
11269;SDS011;5692;48.956;9.200;2022-10-16T03:24:09;190.90;;;181.77;;
11269;SDS011;5692;48.956;9.200;2022-10-16T03:26:35;184.88;;;176.00;;
11269;SDS011;5692;48.956;9.200;2022-10-16T03:29:04;191.05;;;181.90;;
11269;SDS011;5692;48.956;9.200;2022-10-16T03:31:31;184.13;;;175.30;;
11269;SDS011;5692;48.956;9.200;2022-10-16T03:33:57;191.15;;;182.00;;
11269;SDS011;5692;48.956;9.200;2022-10-16T03:36:23;173.52;;;165.23;;
11269;SDS011;5692;48.956;9.200;2022-10-16T03:38:49;174.90;;;166.50;;
11269;SDS011;5692;48.956;9.200;2022-10-16T03:41:15;182.15;;;173.45;;
11269;SDS011;5692;48.956;9.200;2022-10-16T03:43:41;184.77;;;175.93;;
11269;SDS011;5692;48.956;9.200;2022-10-16T03:46:07;176.57;;;168.10;;
11269;SDS011;5692;48.956;9.200;2022-10-16T03:48:34;177.05;;;168.55;;
11269;SDS011;5692;48.956;9.200;2022-10-16T03:51:00;192.25;;;183.05;;
11269;SDS011;5692;48.956;9.200;2022-10-16T03:53:26;187.35;;;178.35;;
11269;SDS011;5692;48.956;9.200;2022-10-16T03:55:52;184.95;;;176.10;;
11269;SDS011;5692;48.956;9.200;2022-10-16T03:58:18;182.73;;;173.98;;
11269;SDS011;5692;48.956;9.200;2022-10-16T04:00:45;192.65;;;183.43;;
11269;SDS011;5692;48.956;9.200;2022-10-16T04:03:12;198.63;;;189.13;;
11269;SDS011;5692;48.956;9.200;2022-10-16T04:05:39;201.20;;;191.57;;
11269;SDS011;5692;48.956;9.200;2022-10-16T04:08:05;198.30;;;188.80;;
11269;SDS011;5692;48.956;9.200;2022-10-16T04:10:31;199.27;;;189.73;;
11269;SDS011;5692;48.956;9.200;2022-10-16T04:12:57;194.85;;;185.55;;
11269;SDS011;5692;48.956;9.200;2022-10-16T04:15:23;200.02;;;190.43;;
11269;SDS011;5692;48.956;9.200;2022-10-16T04:17:50;189.00;;;179.95;;
11269;SDS011;5692;48.956;9.200;2022-10-16T04:20:16;191.38;;;182.23;;
11269;SDS011;5692;48.956;9.200;2022-10-16T04:22:42;209.05;;;199.05;;
11269;SDS011;5692;48.956;9.200;2022-10-16T04:25:09;187.80;;;178.80;;
11269;SDS011;5692;48.956;9.200;2022-10-16T04:27:36;192.25;;;183.05;;
11269;SDS011;5692;48.956;9.200;2022-10-16T04:30:02;198.90;;;189.38;;
11269;SDS011;5692;48.956;9.200;2022-10-16T04:32:28;189.85;;;180.75;;
11269;SDS011;5692;48.956;9.200;2022-10-16T04:34:54;185.82;;;176.93;;
11269;SDS011;5692;48.956;9.200;2022-10-16T04:37:24;198.15;;;188.68;;
11269;SDS011;5692;48.956;9.200;2022-10-16T04:39:50;197.60;;;188.15;;
11269;SDS011;5692;48.956;9.200;2022-10-16T04:42:16;210.40;;;200.35;;
11269;SDS011;5692;48.956;9.200;2022-10-16T04:44:42;191.07;;;181.93;;
11269;SDS011;5692;48.956;9.200;2022-10-16T04:47:08;200.20;;;190.60;;
11269;SDS011;5692;48.956;9.200;2022-10-16T04:49:34;205.50;;;195.65;;
11269;SDS011;5692;48.956;9.200;2022-10-16T04:52:00;202.23;;;192.52;;
11269;SDS011;5692;48.956;9.200;2022-10-16T04:54:26;191.63;;;182.45;;
11269;SDS011;5692;48.956;9.200;2022-10-16T04:56:52;192.57;;;183.35;;
11269;SDS011;5692;48.956;9.200;2022-10-16T04:59:19;202.13;;;192.45;;
11269;SDS011;5692;48.956;9.200;2022-10-16T05:01:45;206.73;;;196.82;;
11269;SDS011;5692;48.956;9.200;2022-10-16T05:04:11;191.40;;;182.20;;
11269;SDS011;5692;48.956;9.200;2022-10-16T05:06:40;205.63;;;195.80;;
11269;SDS011;5692;48.956;9.200;2022-10-16T05:09:06;203.45;;;193.73;;
11269;SDS011;5692;48.956;9.200;2022-10-16T05:11:33;187.95;;;178.95;;
11269;SDS011;5692;48.956;9.200;2022-10-16T05:13:59;184.82;;;175.98;;
11269;SDS011;5692;48.956;9.200;2022-10-16T05:16:28;175.13;;;166.73;;
11269;SDS011;5692;48.956;9.200;2022-10-16T05:18:57;199.70;;;190.10;;
11269;SDS011;5692;48.956;9.200;2022-10-16T05:21:23;193.45;;;184.18;;
11269;SDS011;5692;48.956;9.200;2022-10-16T05:23:49;194.48;;;185.18;;
11269;SDS011;5692;48.956;9.200;2022-10-16T05:26:15;171.63;;;163.43;;
11269;SDS011;5692;48.956;9.200;2022-10-16T05:28:41;182.10;;;173.38;;
11269;SDS011;5692;48.956;9.200;2022-10-16T05:31:08;187.38;;;178.38;;
11269;SDS011;5692;48.956;9.200;2022-10-16T05:33:35;178.02;;;169.50;;
11269;SDS011;5692;48.956;9.200;2022-10-16T05:36:04;181.50;;;172.80;;
11269;SDS011;5692;48.956;9.200;2022-10-16T05:38:32;182.70;;;173.95;;
11269;SDS011;5692;48.956;9.200;2022-10-16T05:41:01;186.00;;;177.10;;
11269;SDS011;5692;48.956;9.200;2022-10-16T05:43:30;186.68;;;177.73;;
11269;SDS011;5692;48.956;9.200;2022-10-16T05:48:22;173.35;;;165.05;;
11269;SDS011;5692;48.956;9.200;2022-10-16T05:50:55;183.98;;;175.18;;
11269;SDS011;5692;48.956;9.200;2022-10-16T05:53:22;172.70;;;164.43;;
11269;SDS011;5692;48.956;9.200;2022-10-16T05:55:51;182.90;;;174.13;;
11269;SDS011;5692;48.956;9.200;2022-10-16T05:58:18;174.25;;;165.90;;
11269;SDS011;5692;48.956;9.200;2022-10-16T06:00:44;167.40;;;159.38;;
11269;SDS011;5692;48.956;9.200;2022-10-16T06:03:10;170.45;;;162.25;;
11269;SDS011;5692;48.956;9.200;2022-10-16T06:05:38;172.95;;;164.65;;
11269;SDS011;5692;48.956;9.200;2022-10-16T06:08:05;180.70;;;172.05;;
11269;SDS011;5692;48.956;9.200;2022-10-16T06:10:31;173.68;;;165.35;;
11269;SDS011;5692;48.956;9.200;2022-10-16T06:13:00;152.85;;;145.55;;
11269;SDS011;5692;48.956;9.200;2022-10-16T06:15:28;160.82;;;153.13;;
11269;SDS011;5692;48.956;9.200;2022-10-16T06:17:54;171.75;;;163.55;;
11269;SDS011;5692;48.956;9.200;2022-10-16T06:20:20;168.70;;;160.63;;
11269;SDS011;5692;48.956;9.200;2022-10-16T06:22:47;168.50;;;160.40;;
11269;SDS011;5692;48.956;9.200;2022-10-16T06:25:16;168.15;;;160.07;;
11269;SDS011;5692;48.956;9.200;2022-10-16T06:27:42;164.38;;;156.50;;
11269;SDS011;5692;48.956;9.200;2022-10-16T06:30:08;173.55;;;165.25;;
11269;SDS011;5692;48.956;9.200;2022-10-16T06:32:34;170.00;;;161.85;;
11269;SDS011;5692;48.956;9.200;2022-10-16T06:35:00;178.55;;;170.00;;
11269;SDS011;5692;48.956;9.200;2022-10-16T06:37:26;171.18;;;162.98;;
11269;SDS011;5692;48.956;9.200;2022-10-16T06:39:53;162.13;;;154.35;;
11269;SDS011;5692;48.956;9.200;2022-10-16T06:42:19;165.77;;;157.82;;
11269;SDS011;5692;48.956;9.200;2022-10-16T06:44:45;159.40;;;151.77;;
11269;SDS011;5692;48.956;9.200;2022-10-16T06:47:11;158.05;;;150.45;;
11269;SDS011;5692;48.956;9.200;2022-10-16T06:49:37;155.50;;;148.02;;
11269;SDS011;5692;48.956;9.200;2022-10-16T06:52:03;150.38;;;143.18;;
11269;SDS011;5692;48.956;9.200;2022-10-16T06:54:32;177.38;;;168.88;;
11269;SDS011;5692;48.956;9.200;2022-10-16T06:56:58;163.23;;;155.40;;
11269;SDS011;5692;48.956;9.200;2022-10-16T06:59:27;180.48;;;171.85;;
11269;SDS011;5692;48.956;9.200;2022-10-16T07:01:53;165.95;;;158.00;;
11269;SDS011;5692;48.956;9.200;2022-10-16T07:04:19;163.27;;;155.48;;
11269;SDS011;5692;48.956;9.200;2022-10-16T07:06:46;161.80;;;154.02;;
11269;SDS011;5692;48.956;9.200;2022-10-16T07:09:12;170.55;;;162.38;;
11269;SDS011;5692;48.956;9.200;2022-10-16T07:11:38;160.15;;;152.48;;
11269;SDS011;5692;48.956;9.200;2022-10-16T07:14:09;160.45;;;152.75;;
11269;SDS011;5692;48.956;9.200;2022-10-16T07:16:38;165.57;;;157.68;;
11269;SDS011;5692;48.956;9.200;2022-10-16T07:19:04;179.43;;;170.82;;
11269;SDS011;5692;48.956;9.200;2022-10-16T07:21:31;170.85;;;162.65;;
11269;SDS011;5692;48.956;9.200;2022-10-16T07:24:00;163.45;;;155.63;;
11269;SDS011;5692;48.956;9.200;2022-10-16T07:26:27;154.90;;;147.50;;
11269;SDS011;5692;48.956;9.200;2022-10-16T07:28:55;159.32;;;151.73;;
11269;SDS011;5692;48.956;9.200;2022-10-16T07:31:21;167.50;;;159.45;;
11269;SDS011;5692;48.956;9.200;2022-10-16T07:33:48;158.90;;;151.30;;
11269;SDS011;5692;48.956;9.200;2022-10-16T07:36:17;165.48;;;157.55;;
11269;SDS011;5692;48.956;9.200;2022-10-16T07:38:46;161.45;;;153.73;;
11269;SDS011;5692;48.956;9.200;2022-10-16T07:41:17;178.02;;;169.52;;
11269;SDS011;5692;48.956;9.200;2022-10-16T07:43:47;169.45;;;161.32;;
11269;SDS011;5692;48.956;9.200;2022-10-16T07:46:16;166.85;;;158.85;;
11269;SDS011;5692;48.956;9.200;2022-10-16T07:48:43;179.25;;;170.65;;
11269;SDS011;5692;48.956;9.200;2022-10-16T07:51:15;167.95;;;159.90;;
11269;SDS011;5692;48.956;9.200;2022-10-16T07:53:42;166.48;;;158.50;;
11269;SDS011;5692;48.956;9.200;2022-10-16T07:56:08;167.73;;;159.70;;
11269;SDS011;5692;48.956;9.200;2022-10-16T07:58:34;170.20;;;162.05;;
11269;SDS011;5692;48.956;9.200;2022-10-16T08:01:05;160.07;;;152.40;;
11269;SDS011;5692;48.956;9.200;2022-10-16T08:03:32;172.25;;;164.00;;
11269;SDS011;5692;48.956;9.200;2022-10-16T08:06:01;173.82;;;165.52;;
11269;SDS011;5692;48.956;9.200;2022-10-16T08:08:27;173.15;;;164.85;;
11269;SDS011;5692;48.956;9.200;2022-10-16T08:10:56;176.38;;;167.93;;
11269;SDS011;5692;48.956;9.200;2022-10-16T08:13:22;186.20;;;177.30;;
11269;SDS011;5692;48.956;9.200;2022-10-16T08:15:48;172.68;;;164.40;;
11269;SDS011;5692;48.956;9.200;2022-10-16T08:18:15;183.00;;;174.20;;
11269;SDS011;5692;48.956;9.200;2022-10-16T08:20:41;189.88;;;180.80;;
11269;SDS011;5692;48.956;9.200;2022-10-16T08:23:09;198.23;;;188.73;;
11269;SDS011;5692;48.956;9.200;2022-10-16T08:25:35;184.15;;;175.35;;
11269;SDS011;5692;48.956;9.200;2022-10-16T08:28:05;179.95;;;171.35;;
11269;SDS011;5692;48.956;9.200;2022-10-16T08:30:31;214.88;;;204.63;;
11269;SDS011;5692;48.956;9.200;2022-10-16T08:32:58;216.82;;;206.45;;
11269;SDS011;5692;48.956;9.200;2022-10-16T08:35:24;222.05;;;211.45;;
11269;SDS011;5692;48.956;9.200;2022-10-16T08:37:50;225.65;;;214.85;;
11269;SDS011;5692;48.956;9.200;2022-10-16T08:40:29;233.30;;;222.15;;
11269;SDS011;5692;48.956;9.200;2022-10-16T08:48:29;234.68;;;223.45;;
11269;SDS011;5692;48.956;9.200;2022-10-16T08:50:56;242.90;;;231.30;;
11269;SDS011;5692;48.956;9.200;2022-10-16T08:53:24;243.48;;;231.82;;
11269;SDS011;5692;48.956;9.200;2022-10-16T08:55:53;241.30;;;229.80;;
11269;SDS011;5692;48.956;9.200;2022-10-16T08:58:20;240.07;;;228.57;;
11269;SDS011;5692;48.956;9.200;2022-10-16T09:00:50;233.70;;;222.50;;
11269;SDS011;5692;48.956;9.200;2022-10-16T09:06:00;245.80;;;234.02;;
11269;SDS011;5692;48.956;9.200;2022-10-16T09:13:36;237.55;;;226.18;;
11269;SDS011;5692;48.956;9.200;2022-10-16T09:19:37;235.55;;;224.30;;
11269;SDS011;5692;48.956;9.200;2022-10-16T09:23:57;247.65;;;235.80;;
11269;SDS011;5692;48.956;9.200;2022-10-16T09:26:24;240.80;;;229.30;;
11269;SDS011;5692;48.956;9.200;2022-10-16T09:28:52;240.45;;;228.95;;
11269;SDS011;5692;48.956;9.200;2022-10-16T09:31:19;253.20;;;241.10;;
11269;SDS011;5692;48.956;9.200;2022-10-16T09:33:48;255.38;;;243.18;;
11269;SDS011;5692;48.956;9.200;2022-10-16T09:36:14;266.42;;;253.70;;
11269;SDS011;5692;48.956;9.200;2022-10-16T09:38:41;249.38;;;237.43;;
11269;SDS011;5692;48.956;9.200;2022-10-16T09:41:14;194.93;;;185.60;;
11269;SDS011;5692;48.956;9.200;2022-10-16T09:43:46;187.18;;;178.18;;
11269;SDS011;5692;48.956;9.200;2022-10-16T09:46:27;214.45;;;204.20;;
11269;SDS011;5692;48.956;9.200;2022-10-16T09:48:54;214.65;;;204.35;;
11269;SDS011;5692;48.956;9.200;2022-10-16T09:51:22;192.85;;;183.60;;
11269;SDS011;5692;48.956;9.200;2022-10-16T09:53:53;199.25;;;189.70;;
11269;SDS011;5692;48.956;9.200;2022-10-16T09:56:23;193.38;;;184.10;;
11269;SDS011;5692;48.956;9.200;2022-10-16T09:58:51;217.88;;;207.48;;
11269;SDS011;5692;48.956;9.200;2022-10-16T10:01:17;242.57;;;230.97;;
11269;SDS011;5692;48.956;9.200;2022-10-16T10:03:44;223.50;;;212.80;;
11269;SDS011;5692;48.956;9.200;2022-10-16T10:08:59;193.47;;;184.17;;
11269;SDS011;5692;48.956;9.200;2022-10-16T10:14:05;219.00;;;208.50;;
11269;SDS011;5692;48.956;9.200;2022-10-16T10:16:31;210.03;;;199.97;;
11269;SDS011;5692;48.956;9.200;2022-10-16T10:18:58;222.47;;;211.83;;
11269;SDS011;5692;48.956;9.200;2022-10-16T10:21:24;214.70;;;204.40;;
11269;SDS011;5692;48.956;9.200;2022-10-16T10:23:56;233.37;;;222.17;;
11269;SDS011;5692;48.956;9.200;2022-10-16T10:26:24;211.43;;;201.33;;
11269;SDS011;5692;48.956;9.200;2022-10-16T10:31:20;306.30;;;291.67;;
11269;SDS011;5692;48.956;9.200;2022-10-16T10:39:40;335.42;;;319.42;;
11269;SDS011;5692;48.956;9.200;2022-10-16T10:49:22;343.27;;;326.88;;
11269;SDS011;5692;48.956;9.200;2022-10-16T11:02:05;308.67;;;293.90;;
11269;SDS011;5692;48.956;9.200;2022-10-16T11:07:15;310.13;;;295.33;;
11269;SDS011;5692;48.956;9.200;2022-10-16T11:09:44;301.85;;;287.45;;
11269;SDS011;5692;48.956;9.200;2022-10-16T11:12:28;309.48;;;294.67;;
11269;SDS011;5692;48.956;9.200;2022-10-16T11:17:23;349.60;;;332.90;;
11269;SDS011;5692;48.956;9.200;2022-10-16T11:22:19;223.93;;;213.23;;
11269;SDS011;5692;48.956;9.200;2022-10-16T11:27:34;179.43;;;170.83;;
11269;SDS011;5692;48.956;9.200;2022-10-16T11:30:02;122.20;;;116.33;;
11269;SDS011;5692;48.956;9.200;2022-10-16T11:32:32;184.43;;;175.60;;
11269;SDS011;5692;48.956;9.200;2022-10-16T11:35:11;188.40;;;179.40;;
11269;SDS011;5692;48.956;9.200;2022-10-16T11:37:41;173.80;;;165.47;;
11269;SDS011;5692;48.956;9.200;2022-10-16T11:43:24;145.37;;;138.37;;
11269;SDS011;5692;48.956;9.200;2022-10-16T11:45:54;154.20;;;146.80;;
11269;SDS011;5692;48.956;9.200;2022-10-16T11:50:53;173.40;;;165.10;;
11269;SDS011;5692;48.956;9.200;2022-10-16T11:55:59;87.23;;;83.03;;
11269;SDS011;5692;48.956;9.200;2022-10-16T11:58:39;99.20;;;94.43;;
11269;SDS011;5692;48.956;9.200;2022-10-16T12:01:22;80.90;;;77.00;;
11269;SDS011;5692;48.956;9.200;2022-10-16T12:09:04;4.63;;;2.40;;
11269;SDS011;5692;48.956;9.200;2022-10-16T12:11:31;9.83;;;1.60;;
11269;SDS011;5692;48.956;9.200;2022-10-16T12:17:50;6.70;;;2.10;;
11269;SDS011;5692;48.956;9.200;2022-10-16T12:19:45;3.80;;;2.13;;
11269;SDS011;5692;48.956;9.200;2022-10-16T12:22:22;6.80;;;3.20;;
11269;SDS011;5692;48.956;9.200;2022-10-16T12:24:50;5.43;;;2.70;;
11269;SDS011;5692;48.956;9.200;2022-10-16T12:27:35;3.53;;;1.73;;
11269;SDS011;5692;48.956;9.200;2022-10-16T12:30:03;4.27;;;1.93;;
11269;SDS011;5692;48.956;9.200;2022-10-16T12:32:34;310.33;;;295.53;;
11269;SDS011;5692;48.956;9.200;2022-10-16T12:35:01;335.07;;;319.07;;
11269;SDS011;5692;48.956;9.200;2022-10-16T12:37:34;328.23;;;312.57;;
11269;SDS011;5692;48.956;9.200;2022-10-16T12:40:15;328.17;;;312.50;;
11269;SDS011;5692;48.956;9.200;2022-10-16T12:42:42;329.57;;;313.83;;
11269;SDS011;5692;48.956;9.200;2022-10-16T12:47:53;336.60;;;320.50;;
11269;SDS011;5692;48.956;9.200;2022-10-16T12:52:56;330.10;;;314.30;;
11269;SDS011;5692;48.956;9.200;2022-10-16T12:55:22;334.70;;;318.73;;
11269;SDS011;5692;48.956;9.200;2022-10-16T13:00:21;343.83;;;327.43;;
11269;SDS011;5692;48.956;9.200;2022-10-16T13:15:40;306.40;;;291.73;;
11269;SDS011;5692;48.956;9.200;2022-10-16T13:18:13;319.00;;;303.80;;
11269;SDS011;5692;48.956;9.200;2022-10-16T13:26:05;321.45;;;306.05;;
11269;SDS011;5692;48.956;9.200;2022-10-16T13:28:35;317.48;;;302.30;;
11269;SDS011;5692;48.956;9.200;2022-10-16T13:31:02;302.85;;;288.35;;
11269;SDS011;5692;48.956;9.200;2022-10-16T13:35:58;290.52;;;276.63;;
11269;SDS011;5692;48.956;9.200;2022-10-16T13:38:29;311.48;;;296.58;;
11269;SDS011;5692;48.956;9.200;2022-10-16T13:41:00;313.60;;;298.63;;
11269;SDS011;5692;48.956;9.200;2022-10-16T13:46:06;308.80;;;294.02;;
11269;SDS011;5692;48.956;9.200;2022-10-16T13:48:32;309.83;;;295.02;;
11269;SDS011;5692;48.956;9.200;2022-10-16T13:51:00;302.75;;;288.30;;
11269;SDS011;5692;48.956;9.200;2022-10-16T13:53:26;302.50;;;288.05;;
11269;SDS011;5692;48.956;9.200;2022-10-16T13:55:52;297.20;;;283.00;;
11269;SDS011;5692;48.956;9.200;2022-10-16T13:58:18;294.77;;;280.67;;
11269;SDS011;5692;48.956;9.200;2022-10-16T14:00:58;305.30;;;290.70;;
11269;SDS011;5692;48.956;9.200;2022-10-16T14:03:24;303.80;;;289.27;;
11269;SDS011;5692;48.956;9.200;2022-10-16T14:05:52;303.43;;;288.93;;
11269;SDS011;5692;48.956;9.200;2022-10-16T14:08:18;292.00;;;278.03;;
11269;SDS011;5692;48.956;9.200;2022-10-16T14:10:48;299.80;;;285.47;;
11269;SDS011;5692;48.956;9.200;2022-10-16T14:13:17;294.97;;;280.87;;
11269;SDS011;5692;48.956;9.200;2022-10-16T14:15:46;311.73;;;296.83;;
11269;SDS011;5692;48.956;9.200;2022-10-16T14:18:15;299.47;;;285.17;;
11269;SDS011;5692;48.956;9.200;2022-10-16T14:20:44;305.00;;;290.43;;
11269;SDS011;5692;48.956;9.200;2022-10-16T14:25:44;308.93;;;294.17;;
11269;SDS011;5692;48.956;9.200;2022-10-16T14:28:15;303.67;;;289.17;;
11269;SDS011;5692;48.956;9.200;2022-10-16T14:38:29;309.33;;;294.53;;
11269;SDS011;5692;48.956;9.200;2022-10-16T14:40:57;290.05;;;276.20;;
11269;SDS011;5692;48.956;9.200;2022-10-16T14:43:33;306.10;;;291.48;;
11269;SDS011;5692;48.956;9.200;2022-10-16T14:46:01;298.20;;;283.95;;
11269;SDS011;5692;48.956;9.200;2022-10-16T14:48:30;308.48;;;293.75;;
11269;SDS011;5692;48.956;9.200;2022-10-16T14:50:59;299.10;;;284.80;;
11269;SDS011;5692;48.956;9.200;2022-10-16T14:53:25;290.47;;;276.57;;
11269;SDS011;5692;48.956;9.200;2022-10-16T14:55:51;306.43;;;291.83;;
11269;SDS011;5692;48.956;9.200;2022-10-16T14:58:21;290.17;;;276.30;;
11269;SDS011;5692;48.956;9.200;2022-10-16T15:00:48;277.13;;;263.88;;
11269;SDS011;5692;48.956;9.200;2022-10-16T15:03:15;287.58;;;273.83;;
11269;SDS011;5692;48.956;9.200;2022-10-16T15:05:41;300.15;;;285.83;;
11269;SDS011;5692;48.956;9.200;2022-10-16T15:08:07;302.67;;;288.20;;
11269;SDS011;5692;48.956;9.200;2022-10-16T15:10:35;292.23;;;278.23;;
11269;SDS011;5692;48.956;9.200;2022-10-16T15:13:03;276.85;;;263.63;;
11269;SDS011;5692;48.956;9.200;2022-10-16T15:17:58;298.42;;;284.17;;
11269;SDS011;5692;48.956;9.200;2022-10-16T15:20:29;285.17;;;271.52;;
11269;SDS011;5692;48.956;9.200;2022-10-16T15:22:57;278.70;;;265.40;;
11269;SDS011;5692;48.956;9.200;2022-10-16T15:27:52;276.48;;;263.27;;
11269;SDS011;5692;48.956;9.200;2022-10-16T15:30:18;289.85;;;276.00;;
11269;SDS011;5692;48.956;9.200;2022-10-16T15:32:44;301.50;;;287.10;;
11269;SDS011;5692;48.956;9.200;2022-10-16T15:35:10;285.42;;;271.77;;
11269;SDS011;5692;48.956;9.200;2022-10-16T15:37:36;287.30;;;273.60;;
11269;SDS011;5692;48.956;9.200;2022-10-16T15:40:02;273.93;;;260.83;;
11269;SDS011;5692;48.956;9.200;2022-10-16T15:42:29;286.77;;;273.08;;
11269;SDS011;5692;48.956;9.200;2022-10-16T15:44:55;279.55;;;266.17;;
11269;SDS011;5692;48.956;9.200;2022-10-16T15:47:21;292.33;;;278.35;;
11269;SDS011;5692;48.956;9.200;2022-10-16T15:49:47;286.47;;;272.77;;
11269;SDS011;5692;48.956;9.200;2022-10-16T15:52:13;273.67;;;260.60;;
11269;SDS011;5692;48.956;9.200;2022-10-16T15:54:39;285.40;;;271.80;;
11269;SDS011;5692;48.956;9.200;2022-10-16T15:57:05;274.63;;;261.52;;
11269;SDS011;5692;48.956;9.200;2022-10-16T15:59:31;262.20;;;249.70;;
11269;SDS011;5692;48.956;9.200;2022-10-16T16:01:57;272.67;;;259.65;;
11269;SDS011;5692;48.956;9.200;2022-10-16T16:04:23;287.65;;;273.90;;
11269;SDS011;5692;48.956;9.200;2022-10-16T16:06:49;282.17;;;268.70;;
11269;SDS011;5692;48.956;9.200;2022-10-16T16:09:15;275.67;;;262.50;;
11269;SDS011;5692;48.956;9.200;2022-10-16T16:11:41;276.98;;;263.73;;
11269;SDS011;5692;48.956;9.200;2022-10-16T16:14:08;259.75;;;247.32;;
11269;SDS011;5692;48.956;9.200;2022-10-16T16:16:37;258.05;;;245.70;;
11269;SDS011;5692;48.956;9.200;2022-10-16T16:19:04;260.85;;;248.40;;
11269;SDS011;5692;48.956;9.200;2022-10-16T16:21:31;274.95;;;261.80;;
11269;SDS011;5692;48.956;9.200;2022-10-16T16:23:58;265.90;;;253.20;;
11269;SDS011;5692;48.956;9.200;2022-10-16T16:26:25;273.33;;;260.25;;
11269;SDS011;5692;48.956;9.200;2022-10-16T16:28:54;276.75;;;263.55;;
11269;SDS011;5692;48.956;9.200;2022-10-16T16:31:24;265.55;;;252.85;;
11269;SDS011;5692;48.956;9.200;2022-10-16T16:33:51;243.93;;;232.23;;
11269;SDS011;5692;48.956;9.200;2022-10-16T16:36:17;261.83;;;249.32;;
11269;SDS011;5692;48.956;9.200;2022-10-16T16:38:44;256.65;;;244.38;;
11269;SDS011;5692;48.956;9.200;2022-10-16T16:41:17;234.23;;;223.02;;